Главная страница
METAR-TAF:

METAR-TAF

Аэропорты :

Савонлинна, Финляндия

широта: 61-57N, долгота: 028-57E, высота над уровнем моря: 95 м

Текущие метеонаблюдения

Эта сводка был подготовлена 17 минут назад, в 05:20 UTC
Ветер 5 Узел от восточно-юго-восточный
Температура 1°C
Влажность 93%
Давление 1006 hPa
Видимость 10 км и более
Сплошная облачность на высоте 500 фута
небольшие ливневые дожди

METAR: EFSA 190520Z AUTO 11005KT 9999 -SHRA OVC005 01/00 Q1006

Время: 07:37 (05:37 UTC)

Прогноз

Эта сводка был подготовлена 3 часа и 1 минут назад, в 02:36 UTC
Прогноз действительный с 19-го 03 UTC до 19-го 12 UTC
Ветер 5 Узел от юго-юго-восточный
Видимость 10 км и более
Сплошная облачность на высоте 600 фута
временами
С 19-го 03 UTC до 19-го 08 UTC
Видимость: 4000 м
Сплошная облачность на высоте 400 фута
небольшой дождь, снег

TAF: EFSA 190236Z 1903/1912 16005KT 9999 OVC006 TEMPO 1903/1908 4000 -RASN OVC004

Метеонаблюдения и прогнозы для более 4000 аэропортов (сводки METAR и TAF).

Имеющиеся станции представлены на карте желтыми и красными точками.

Чтобы увидеть название станции, наведите на нее мышь.

Затем щелкните, чтобы увидеть метеонаблюдения и метеопрогнозы.

Управление картой: чтобы увеличить масштаб, щелкните зеленые кнопки с черным крестиком; чтобы уменьшить масштаб, щелкните зеленую кнопку с тире; для просмотра соседних карт щелкайте зеленые стрелки.


METAR-TAF: